sensor_id;sensor_type;location;lat;lon;timestamp;pressure;altitude;pressure_sealevel;temperature;humidity
76551;BME280;68768;53.156;18.164;2023-12-20T00:00:16;100428.62;;;6.37;90.30
76551;BME280;68768;53.156;18.164;2023-12-20T00:03:03;100427.73;;;6.38;90.31
76551;BME280;68768;53.156;18.164;2023-12-20T00:05:30;100418.90;;;6.38;90.09
76551;BME280;68768;53.156;18.164;2023-12-20T00:07:58;100421.19;;;6.38;90.27
76551;BME280;68768;53.156;18.164;2023-12-20T00:10:24;100423.14;;;6.38;90.30
76551;BME280;68768;53.156;18.164;2023-12-20T00:12:50;100426.81;;;6.39;90.34
76551;BME280;68768;53.156;18.164;2023-12-20T00:15:17;100424.52;;;6.39;90.26
76551;BME280;68768;53.156;18.164;2023-12-20T00:17:43;100427.13;;;6.40;90.34
76551;BME280;68768;53.156;18.164;2023-12-20T00:20:10;100427.13;;;6.40;90.32
76551;BME280;68768;53.156;18.164;2023-12-20T00:22:36;100428.85;;;6.41;90.24
76551;BME280;68768;53.156;18.164;2023-12-20T00:25:02;100426.72;;;6.42;90.24
76551;BME280;68768;53.156;18.164;2023-12-20T00:27:29;100424.76;;;6.43;90.29
76551;BME280;68768;53.156;18.164;2023-12-20T00:29:55;100422.11;;;6.43;90.23
76551;BME280;68768;53.156;18.164;2023-12-20T00:32:21;100414.52;;;6.43;90.27
76551;BME280;68768;53.156;18.164;2023-12-20T00:34:48;100410.46;;;6.44;90.35
76551;BME280;68768;53.156;18.164;2023-12-20T00:37:14;100407.81;;;6.43;90.26
76551;BME280;68768;53.156;18.164;2023-12-20T00:39:40;100401.48;;;6.44;90.32
76551;BME280;68768;53.156;18.164;2023-12-20T00:42:06;100405.52;;;6.44;90.38
76551;BME280;68768;53.156;18.164;2023-12-20T00:44:33;100400.04;;;6.45;90.22
76551;BME280;68768;53.156;18.164;2023-12-20T00:46:59;100400.58;;;6.44;90.26
76551;BME280;68768;53.156;18.164;2023-12-20T00:49:25;100403.03;;;6.45;90.26
76551;BME280;68768;53.156;18.164;2023-12-20T00:51:51;100405.52;;;6.44;90.43
76551;BME280;68768;53.156;18.164;2023-12-20T00:54:18;100408.33;;;6.44;90.36
76551;BME280;68768;53.156;18.164;2023-12-20T00:56:44;100407.11;;;6.44;90.48
76551;BME280;68768;53.156;18.164;2023-12-20T00:59:11;100402.16;;;6.44;90.29
76551;BME280;68768;53.156;18.164;2023-12-20T01:01:38;100400.92;;;6.45;90.43
76551;BME280;68768;53.156;18.164;2023-12-20T01:04:04;100403.03;;;6.45;90.44
76551;BME280;68768;53.156;18.164;2023-12-20T01:06:30;100402.84;;;6.45;90.41
76551;BME280;68768;53.156;18.164;2023-12-20T01:08:57;100400.88;;;6.46;90.36
76551;BME280;68768;53.156;18.164;2023-12-20T01:11:23;100390.66;;;6.46;90.31
76551;BME280;68768;53.156;18.164;2023-12-20T01:13:49;100387.84;;;6.46;90.30
76551;BME280;68768;53.156;18.164;2023-12-20T01:16:15;100385.00;;;6.47;90.42
76551;BME280;68768;53.156;18.164;2023-12-20T01:18:41;100381.83;;;6.47;90.27
76551;BME280;68768;53.156;18.164;2023-12-20T01:21:08;100382.16;;;6.48;90.31
76551;BME280;68768;53.156;18.164;2023-12-20T01:23:35;100379.70;;;6.48;90.43
76551;BME280;68768;53.156;18.164;2023-12-20T01:26:01;100376.52;;;6.48;90.34
76551;BME280;68768;53.156;18.164;2023-12-20T01:28:28;100377.39;;;6.48;90.55
76551;BME280;68768;53.156;18.164;2023-12-20T01:30:54;100374.57;;;6.48;90.56
76551;BME280;68768;53.156;18.164;2023-12-20T01:33:21;100378.27;;;6.48;90.33
76551;BME280;68768;53.156;18.164;2023-12-20T01:35:47;100377.02;;;6.49;90.55
76551;BME280;68768;53.156;18.164;2023-12-20T01:38:13;100371.05;;;6.48;90.63
76551;BME280;68768;53.156;18.164;2023-12-20T01:40:39;100368.56;;;6.49;90.56
76551;BME280;68768;53.156;18.164;2023-12-20T01:43:09;100367.86;;;6.49;90.57
76551;BME280;68768;53.156;18.164;2023-12-20T01:45:35;100360.45;;;6.49;90.49
76551;BME280;68768;53.156;18.164;2023-12-20T01:48:02;100357.98;;;6.49;90.57
76551;BME280;68768;53.156;18.164;2023-12-20T01:50:30;100356.91;;;6.49;90.47
76551;BME280;68768;53.156;18.164;2023-12-20T01:52:59;100355.86;;;6.49;90.34
76551;BME280;68768;53.156;18.164;2023-12-20T01:55:28;100355.13;;;6.50;90.41
76551;BME280;68768;53.156;18.164;2023-12-20T01:57:56;100353.02;;;6.50;90.51
76551;BME280;68768;53.156;18.164;2023-12-20T02:00:23;100350.56;;;6.49;90.51
76551;BME280;68768;53.156;18.164;2023-12-20T02:02:55;100349.16;;;6.49;90.39
76551;BME280;68768;53.156;18.164;2023-12-20T02:05:22;100348.80;;;6.49;90.34
76551;BME280;68768;53.156;18.164;2023-12-20T02:07:48;100350.04;;;6.49;90.55
76551;BME280;68768;53.156;18.164;2023-12-20T02:10:15;100352.30;;;6.50;90.52
76551;BME280;68768;53.156;18.164;2023-12-20T02:12:41;100351.42;;;6.50;90.41
76551;BME280;68768;53.156;18.164;2023-12-20T02:15:08;100352.84;;;6.50;90.60
76551;BME280;68768;53.156;18.164;2023-12-20T02:17:36;100352.29;;;6.51;90.60
76551;BME280;68768;53.156;18.164;2023-12-20T02:20:03;100343.66;;;6.50;90.59
76551;BME280;68768;53.156;18.164;2023-12-20T02:22:29;100331.15;;;6.50;90.65
76551;BME280;68768;53.156;18.164;2023-12-20T02:24:55;100336.79;;;6.50;90.62
76551;BME280;68768;53.156;18.164;2023-12-20T02:27:21;100333.44;;;6.51;90.58
76551;BME280;68768;53.156;18.164;2023-12-20T02:29:50;100333.59;;;6.51;90.60
76551;BME280;68768;53.156;18.164;2023-12-20T02:32:17;100335.18;;;6.51;90.58
76551;BME280;68768;53.156;18.164;2023-12-20T02:34:45;100330.57;;;6.52;90.61
76551;BME280;68768;53.156;18.164;2023-12-20T02:37:11;100332.15;;;6.52;90.70
76551;BME280;68768;53.156;18.164;2023-12-20T02:39:38;100327.73;;;6.52;90.59
76551;BME280;68768;53.156;18.164;2023-12-20T02:42:04;100328.78;;;6.52;90.64
76551;BME280;68768;53.156;18.164;2023-12-20T02:44:30;100325.08;;;6.52;90.79
76551;BME280;68768;53.156;18.164;2023-12-20T02:46:56;100328.25;;;6.52;90.79
76551;BME280;68768;53.156;18.164;2023-12-20T02:49:22;100325.77;;;6.52;90.75
76551;BME280;68768;53.156;18.164;2023-12-20T02:51:48;100324.71;;;6.53;90.80
76551;BME280;68768;53.156;18.164;2023-12-20T02:54:15;100323.15;;;6.52;90.78
76551;BME280;68768;53.156;18.164;2023-12-20T02:56:41;100321.06;;;6.51;90.77
76551;BME280;68768;53.156;18.164;2023-12-20T02:59:07;100325.50;;;6.51;90.83
76551;BME280;68768;53.156;18.164;2023-12-20T03:01:35;100323.73;;;6.51;90.86
76551;BME280;68768;53.156;18.164;2023-12-20T03:04:01;100324.56;;;6.52;91.01
76551;BME280;68768;53.156;18.164;2023-12-20T03:06:27;100320.35;;;6.52;90.87
76551;BME280;68768;53.156;18.164;2023-12-20T03:08:53;100312.79;;;6.51;90.88
76551;BME280;68768;53.156;18.164;2023-12-20T03:11:19;100303.80;;;6.51;90.85
76551;BME280;68768;53.156;18.164;2023-12-20T03:13:45;100301.70;;;6.51;90.97
76551;BME280;68768;53.156;18.164;2023-12-20T03:16:12;100306.98;;;6.51;90.93
76551;BME280;68768;53.156;18.164;2023-12-20T03:18:39;100304.36;;;6.50;90.99
76551;BME280;68768;53.156;18.164;2023-12-20T03:21:05;100305.59;;;6.50;91.00
76551;BME280;68768;53.156;18.164;2023-12-20T03:23:32;100302.59;;;6.50;90.98
76551;BME280;68768;53.156;18.164;2023-12-20T03:25:59;100306.11;;;6.50;91.05
76551;BME280;68768;53.156;18.164;2023-12-20T03:28:29;100309.42;;;6.51;91.07
76551;BME280;68768;53.156;18.164;2023-12-20T03:30:55;100306.08;;;6.51;90.95
76551;BME280;68768;53.156;18.164;2023-12-20T03:33:22;100303.42;;;6.51;90.98
76551;BME280;68768;53.156;18.164;2023-12-20T03:35:48;100303.22;;;6.52;91.02
76551;BME280;68768;53.156;18.164;2023-12-20T03:38:14;100300.22;;;6.52;91.04
76551;BME280;68768;53.156;18.164;2023-12-20T03:40:40;100300.58;;;6.52;90.96
76551;BME280;68768;53.156;18.164;2023-12-20T03:43:06;100300.91;;;6.52;90.90
76551;BME280;68768;53.156;18.164;2023-12-20T03:45:33;100298.97;;;6.53;90.86
76551;BME280;68768;53.156;18.164;2023-12-20T03:47:59;100298.98;;;6.52;90.91
76551;BME280;68768;53.156;18.164;2023-12-20T03:50:26;100306.55;;;6.52;90.81
76551;BME280;68768;53.156;18.164;2023-12-20T03:52:52;100303.75;;;6.52;90.77
76551;BME280;68768;53.156;18.164;2023-12-20T03:55:19;100301.10;;;6.52;90.90
76551;BME280;68768;53.156;18.164;2023-12-20T03:57:45;100298.77;;;6.53;90.76
76551;BME280;68768;53.156;18.164;2023-12-20T04:00:11;100299.31;;;6.53;90.85
76551;BME280;68768;53.156;18.164;2023-12-20T04:02:41;100300.20;;;6.53;90.85
76551;BME280;68768;53.156;18.164;2023-12-20T04:05:09;100300.02;;;6.53;90.74
76551;BME280;68768;53.156;18.164;2023-12-20T04:07:36;100300.20;;;6.53;90.70
76551;BME280;68768;53.156;18.164;2023-12-20T04:10:03;100299.14;;;6.53;90.70
76551;BME280;68768;53.156;18.164;2023-12-20T04:12:32;100300.55;;;6.53;90.63
76551;BME280;68768;53.156;18.164;2023-12-20T04:14:59;100301.95;;;6.53;90.66
76551;BME280;68768;53.156;18.164;2023-12-20T04:17:25;100300.19;;;6.53;90.52
76551;BME280;68768;53.156;18.164;2023-12-20T04:19:51;100300.72;;;6.53;90.46
76551;BME280;68768;53.156;18.164;2023-12-20T04:22:18;100295.80;;;6.52;90.57
76551;BME280;68768;53.156;18.164;2023-12-20T04:24:45;100293.83;;;6.54;90.47
76551;BME280;68768;53.156;18.164;2023-12-20T04:27:11;100292.08;;;6.53;90.57
76551;BME280;68768;53.156;18.164;2023-12-20T04:29:37;100295.59;;;6.54;90.48
76551;BME280;68768;53.156;18.164;2023-12-20T04:32:04;100296.66;;;6.53;90.55
76551;BME280;68768;53.156;18.164;2023-12-20T04:34:31;100296.65;;;6.53;90.46
76551;BME280;68768;53.156;18.164;2023-12-20T04:36:57;100296.13;;;6.53;90.60
76551;BME280;68768;53.156;18.164;2023-12-20T04:39:23;100296.84;;;6.53;90.43
76551;BME280;68768;53.156;18.164;2023-12-20T04:41:50;100298.23;;;6.54;90.47
76551;BME280;68768;53.156;18.164;2023-12-20T04:44:16;100298.77;;;6.53;90.51
76551;BME280;68768;53.156;18.164;2023-12-20T04:46:42;100303.89;;;6.53;90.58
76551;BME280;68768;53.156;18.164;2023-12-20T04:49:08;100303.02;;;6.53;90.49
76551;BME280;68768;53.156;18.164;2023-12-20T04:51:35;100298.42;;;6.53;90.43
76551;BME280;68768;53.156;18.164;2023-12-20T04:54:04;100309.04;;;6.52;90.51
76551;BME280;68768;53.156;18.164;2023-12-20T04:56:30;100312.25;;;6.51;90.51
76551;BME280;68768;53.156;18.164;2023-12-20T04:58:56;100304.37;;;6.49;90.45
76551;BME280;68768;53.156;18.164;2023-12-20T05:01:23;100308.45;;;6.49;90.32
76551;BME280;68768;53.156;18.164;2023-12-20T05:03:49;100310.05;;;6.48;90.45
76551;BME280;68768;53.156;18.164;2023-12-20T05:06:15;100311.30;;;6.48;90.35
76551;BME280;68768;53.156;18.164;2023-12-20T05:08:41;100312.56;;;6.46;90.42
76551;BME280;68768;53.156;18.164;2023-12-20T05:11:07;100314.70;;;6.45;90.18
76551;BME280;68768;53.156;18.164;2023-12-20T05:13:33;100314.20;;;6.45;90.34
76551;BME280;68768;53.156;18.164;2023-12-20T05:16:00;100315.10;;;6.43;90.36
76551;BME280;68768;53.156;18.164;2023-12-20T05:18:26;100315.98;;;6.43;90.26
76551;BME280;68768;53.156;18.164;2023-12-20T05:20:52;100316.52;;;6.43;90.23
76551;BME280;68768;53.156;18.164;2023-12-20T05:23:19;100314.23;;;6.42;90.33
76551;BME280;68768;53.156;18.164;2023-12-20T05:25:46;100310.36;;;6.42;90.34
76551;BME280;68768;53.156;18.164;2023-12-20T05:28:12;100311.56;;;6.44;90.20
76551;BME280;68768;53.156;18.164;2023-12-20T05:30:38;100309.10;;;6.43;90.23
76551;BME280;68768;53.156;18.164;2023-12-20T05:33:04;100311.06;;;6.43;90.23
76551;BME280;68768;53.156;18.164;2023-12-20T05:35:30;100307.55;;;6.42;90.29
76551;BME280;68768;53.156;18.164;2023-12-20T05:37:56;100310.04;;;6.42;90.09
76551;BME280;68768;53.156;18.164;2023-12-20T05:40:23;100311.49;;;6.41;90.14
76551;BME280;68768;53.156;18.164;2023-12-20T05:42:49;100317.34;;;6.40;90.22
76551;BME280;68768;53.156;18.164;2023-12-20T05:45:15;100319.45;;;6.40;90.08
76551;BME280;68768;53.156;18.164;2023-12-20T05:47:41;100309.93;;;6.40;90.21
76551;BME280;68768;53.156;18.164;2023-12-20T05:50:08;100313.48;;;6.39;89.92
76551;BME280;68768;53.156;18.164;2023-12-20T05:52:34;100313.88;;;6.37;89.93
76551;BME280;68768;53.156;18.164;2023-12-20T05:55:01;100310.39;;;6.35;89.82
76551;BME280;68768;53.156;18.164;2023-12-20T05:57:27;100311.31;;;6.34;89.74
76551;BME280;68768;53.156;18.164;2023-12-20T05:59:53;100314.01;;;6.32;89.65
76551;BME280;68768;53.156;18.164;2023-12-20T06:02:19;100314.60;;;6.30;89.62
76551;BME280;68768;53.156;18.164;2023-12-20T06:04:46;100316.27;;;6.27;89.52
76551;BME280;68768;53.156;18.164;2023-12-20T06:07:12;100313.86;;;6.24;89.57
76551;BME280;68768;53.156;18.164;2023-12-20T06:09:39;100313.23;;;6.22;89.49
76551;BME280;68768;53.156;18.164;2023-12-20T06:12:05;100308.41;;;6.18;89.17
76551;BME280;68768;53.156;18.164;2023-12-20T06:14:32;100304.06;;;6.15;89.21
76551;BME280;68768;53.156;18.164;2023-12-20T06:16:58;100300.86;;;6.10;88.98
76551;BME280;68768;53.156;18.164;2023-12-20T06:19:24;100302.20;;;6.07;88.87
76551;BME280;68768;53.156;18.164;2023-12-20T06:21:50;100298.25;;;6.02;88.64
76551;BME280;68768;53.156;18.164;2023-12-20T06:24:16;100306.66;;;5.98;88.77
76551;BME280;68768;53.156;18.164;2023-12-20T06:26:42;100307.98;;;5.94;88.74
76551;BME280;68768;53.156;18.164;2023-12-20T06:29:08;100307.01;;;5.90;88.80
76551;BME280;68768;53.156;18.164;2023-12-20T06:31:35;100307.96;;;5.87;88.81
76551;BME280;68768;53.156;18.164;2023-12-20T06:34:01;100312.57;;;5.85;88.79
76551;BME280;68768;53.156;18.164;2023-12-20T06:36:27;100316.86;;;5.82;88.73
76551;BME280;68768;53.156;18.164;2023-12-20T06:38:53;100315.00;;;5.80;88.73
76551;BME280;68768;53.156;18.164;2023-12-20T06:41:20;100322.05;;;5.79;89.12
76551;BME280;68768;53.156;18.164;2023-12-20T06:43:46;100322.30;;;5.77;88.76
76551;BME280;68768;53.156;18.164;2023-12-20T06:46:13;100325.34;;;5.74;89.28
76551;BME280;68768;53.156;18.164;2023-12-20T06:48:39;100321.36;;;5.71;89.15
76551;BME280;68768;53.156;18.164;2023-12-20T06:51:12;100315.38;;;5.71;89.29
76551;BME280;68768;53.156;18.164;2023-12-20T06:53:38;100313.33;;;5.69;89.36
76551;BME280;68768;53.156;18.164;2023-12-20T06:56:05;100303.52;;;5.67;89.38
76551;BME280;68768;53.156;18.164;2023-12-20T06:58:31;100307.44;;;5.65;89.35
76551;BME280;68768;53.156;18.164;2023-12-20T07:00:57;100307.33;;;5.62;89.24
76551;BME280;68768;53.156;18.164;2023-12-20T07:03:23;100310.73;;;5.60;89.14
76551;BME280;68768;53.156;18.164;2023-12-20T07:05:50;100317.86;;;5.57;89.21
76551;BME280;68768;53.156;18.164;2023-12-20T07:08:16;100322.13;;;5.55;89.32
76551;BME280;68768;53.156;18.164;2023-12-20T07:10:42;100318.65;;;5.52;89.20
76551;BME280;68768;53.156;18.164;2023-12-20T07:13:08;100322.26;;;5.50;89.35
76551;BME280;68768;53.156;18.164;2023-12-20T07:15:35;100329.35;;;5.48;89.27
76551;BME280;68768;53.156;18.164;2023-12-20T07:18:03;100330.14;;;5.43;88.98
76551;BME280;68768;53.156;18.164;2023-12-20T07:20:29;100326.70;;;5.40;88.95
76551;BME280;68768;53.156;18.164;2023-12-20T07:22:55;100326.95;;;5.38;89.00
76551;BME280;68768;53.156;18.164;2023-12-20T07:25:21;100329.66;;;5.34;88.75
76551;BME280;68768;53.156;18.164;2023-12-20T07:27:48;100333.05;;;5.31;88.85
76551;BME280;68768;53.156;18.164;2023-12-20T07:30:14;100333.80;;;5.30;88.81
76551;BME280;68768;53.156;18.164;2023-12-20T07:32:40;100337.55;;;5.29;88.96
76551;BME280;68768;53.156;18.164;2023-12-20T07:35:07;100337.92;;;5.27;88.66
76551;BME280;68768;53.156;18.164;2023-12-20T07:37:33;100339.20;;;5.25;88.83
76551;BME280;68768;53.156;18.164;2023-12-20T07:39:59;100337.45;;;5.24;88.83
76551;BME280;68768;53.156;18.164;2023-12-20T07:42:25;100338.01;;;5.23;88.87
76551;BME280;68768;53.156;18.164;2023-12-20T07:44:51;100340.83;;;5.22;88.83
76551;BME280;68768;53.156;18.164;2023-12-20T07:47:18;100337.31;;;5.22;88.93
76551;BME280;68768;53.156;18.164;2023-12-20T07:49:48;100332.02;;;5.24;88.84
76551;BME280;68768;53.156;18.164;2023-12-20T07:52:14;100327.94;;;5.25;88.82
76551;BME280;68768;53.156;18.164;2023-12-20T07:54:41;100331.10;;;5.25;89.04
76551;BME280;68768;53.156;18.164;2023-12-20T07:57:07;100330.02;;;5.27;88.76
76551;BME280;68768;53.156;18.164;2023-12-20T07:59:33;100322.79;;;5.27;88.94
76551;BME280;68768;53.156;18.164;2023-12-20T08:01:59;100321.52;;;5.29;88.83
76551;BME280;68768;53.156;18.164;2023-12-20T08:04:25;100320.61;;;5.30;88.92
76551;BME280;68768;53.156;18.164;2023-12-20T08:06:51;100329.94;;;5.30;88.66
76551;BME280;68768;53.156;18.164;2023-12-20T08:09:18;100326.73;;;5.31;88.85
76551;BME280;68768;53.156;18.164;2023-12-20T08:11:46;100328.83;;;5.32;88.66
76551;BME280;68768;53.156;18.164;2023-12-20T08:14:12;100328.80;;;5.33;88.45
76551;BME280;68768;53.156;18.164;2023-12-20T08:16:38;100323.69;;;5.34;88.47
76551;BME280;68768;53.156;18.164;2023-12-20T08:19:04;100322.10;;;5.33;88.20
76551;BME280;68768;53.156;18.164;2023-12-20T08:21:31;100317.32;;;5.36;88.29
76551;BME280;68768;53.156;18.164;2023-12-20T08:23:57;100317.08;;;5.38;88.25
76551;BME280;68768;53.156;18.164;2023-12-20T08:26:23;100319.48;;;5.40;88.34
76551;BME280;68768;53.156;18.164;2023-12-20T08:28:50;100322.62;;;5.41;88.11
76551;BME280;68768;53.156;18.164;2023-12-20T08:31:17;100315.38;;;5.42;87.97
76551;BME280;68768;53.156;18.164;2023-12-20T08:33:44;100310.39;;;5.45;87.74
76551;BME280;68768;53.156;18.164;2023-12-20T08:36:11;100313.43;;;5.50;87.86
76551;BME280;68768;53.156;18.164;2023-12-20T08:38:37;100311.72;;;5.56;87.93
76551;BME280;68768;53.156;18.164;2023-12-20T08:41:04;100313.67;;;5.62;87.80
76551;BME280;68768;53.156;18.164;2023-12-20T08:43:36;100316.80;;;5.64;87.69
76551;BME280;68768;53.156;18.164;2023-12-20T08:46:06;100320.80;;;5.66;87.73
76551;BME280;68768;53.156;18.164;2023-12-20T08:48:32;100322.35;;;5.68;87.59
76551;BME280;68768;53.156;18.164;2023-12-20T08:50:58;100315.98;;;5.69;87.42
76551;BME280;68768;53.156;18.164;2023-12-20T08:53:24;100310.64;;;5.71;87.56
76551;BME280;68768;53.156;18.164;2023-12-20T08:55:51;100310.45;;;5.71;87.39
76551;BME280;68768;53.156;18.164;2023-12-20T08:58:17;100307.34;;;5.69;87.54
76551;BME280;68768;53.156;18.164;2023-12-20T09:00:43;100302.62;;;5.68;87.05
76551;BME280;68768;53.156;18.164;2023-12-20T09:03:09;100302.52;;;5.65;87.41
76551;BME280;68768;53.156;18.164;2023-12-20T09:05:36;100305.73;;;5.62;87.39
76551;BME280;68768;53.156;18.164;2023-12-20T09:08:02;100303.16;;;5.60;87.27
76551;BME280;68768;53.156;18.164;2023-12-20T09:10:28;100302.84;;;5.59;87.39
76551;BME280;68768;53.156;18.164;2023-12-20T09:12:54;100298.84;;;5.57;87.29
76551;BME280;68768;53.156;18.164;2023-12-20T09:15:27;100291.64;;;5.57;87.19
76551;BME280;68768;53.156;18.164;2023-12-20T09:17:53;100288.44;;;5.58;86.91
76551;BME280;68768;53.156;18.164;2023-12-20T09:20:19;100295.60;;;5.60;87.18
76551;BME280;68768;53.156;18.164;2023-12-20T09:22:46;100301.69;;;5.63;87.40
76551;BME280;68768;53.156;18.164;2023-12-20T09:25:12;100301.80;;;5.65;87.06
76551;BME280;68768;53.156;18.164;2023-12-20T09:27:39;100293.44;;;5.69;87.17
76551;BME280;68768;53.156;18.164;2023-12-20T09:30:06;100286.10;;;5.73;87.24
76551;BME280;68768;53.156;18.164;2023-12-20T09:32:33;100280.75;;;5.76;86.62
76551;BME280;68768;53.156;18.164;2023-12-20T09:34:59;100279.29;;;5.79;86.65
76551;BME280;68768;53.156;18.164;2023-12-20T09:37:26;100280.92;;;5.82;86.66
76551;BME280;68768;53.156;18.164;2023-12-20T09:39:53;100277.67;;;5.87;86.61
76551;BME280;68768;53.156;18.164;2023-12-20T09:42:31;100277.39;;;5.91;86.53
76551;BME280;68768;53.156;18.164;2023-12-20T09:45:00;100279.56;;;5.96;86.41
76551;BME280;68768;53.156;18.164;2023-12-20T09:47:29;100282.80;;;6.01;85.83
76551;BME280;68768;53.156;18.164;2023-12-20T09:49:55;100274.10;;;6.03;85.76
76551;BME280;68768;53.156;18.164;2023-12-20T09:52:24;100269.77;;;6.01;85.35
76551;BME280;68768;53.156;18.164;2023-12-20T09:54:52;100262.03;;;6.00;85.37
76551;BME280;68768;53.156;18.164;2023-12-20T09:57:19;100262.35;;;6.01;85.47
76551;BME280;68768;53.156;18.164;2023-12-20T09:59:45;100249.70;;;6.00;85.39
76551;BME280;68768;53.156;18.164;2023-12-20T10:02:13;100251.40;;;5.96;84.38
76551;BME280;68768;53.156;18.164;2023-12-20T10:04:46;100251.08;;;5.94;84.69
76551;BME280;68768;53.156;18.164;2023-12-20T10:07:13;100243.86;;;5.94;85.01
76551;BME280;68768;53.156;18.164;2023-12-20T10:09:40;100237.81;;;5.97;85.00
76551;BME280;68768;53.156;18.164;2023-12-20T10:12:07;100236.38;;;5.98;84.67
76551;BME280;68768;53.156;18.164;2023-12-20T10:14:34;100231.61;;;5.98;84.90
76551;BME280;68768;53.156;18.164;2023-12-20T10:17:05;100229.66;;;5.99;84.28
76551;BME280;68768;53.156;18.164;2023-12-20T10:19:32;100224.30;;;6.01;84.68
76551;BME280;68768;53.156;18.164;2023-12-20T10:22:04;100222.68;;;6.02;83.89
76551;BME280;68768;53.156;18.164;2023-12-20T10:24:30;100214.00;;;6.04;83.81
76551;BME280;68768;53.156;18.164;2023-12-20T10:27:07;100212.50;;;6.07;84.02
76551;BME280;68768;53.156;18.164;2023-12-20T10:29:35;100211.85;;;6.11;84.22
76551;BME280;68768;53.156;18.164;2023-12-20T10:32:26;100199.40;;;6.16;84.19
76551;BME280;68768;53.156;18.164;2023-12-20T10:34:54;100195.15;;;6.22;84.24
76551;BME280;68768;53.156;18.164;2023-12-20T10:37:21;100190.50;;;6.25;83.91
76551;BME280;68768;53.156;18.164;2023-12-20T10:39:50;100189.03;;;6.27;83.55
76551;BME280;68768;53.156;18.164;2023-12-20T10:42:21;100183.52;;;6.29;83.72
76551;BME280;68768;53.156;18.164;2023-12-20T10:44:49;100183.15;;;6.30;83.83
76551;BME280;68768;53.156;18.164;2023-12-20T10:47:17;100177.17;;;6.29;83.44
76551;BME280;68768;53.156;18.164;2023-12-20T10:49:44;100177.88;;;6.29;84.00
76551;BME280;68768;53.156;18.164;2023-12-20T10:52:12;100171.11;;;6.31;83.85
76551;BME280;68768;53.156;18.164;2023-12-20T10:54:40;100166.66;;;6.32;83.55
76551;BME280;68768;53.156;18.164;2023-12-20T10:57:07;100166.63;;;6.33;83.41
76551;BME280;68768;53.156;18.164;2023-12-20T10:59:36;100163.45;;;6.33;83.70
76551;BME280;68768;53.156;18.164;2023-12-20T11:02:06;100160.08;;;6.35;83.54
76551;BME280;68768;53.156;18.164;2023-12-20T11:04:59;100149.52;;;6.34;83.38
76551;BME280;68768;53.156;18.164;2023-12-20T11:07:36;100150.63;;;6.32;83.34
76551;BME280;68768;53.156;18.164;2023-12-20T11:10:18;100142.42;;;6.30;83.59
76551;BME280;68768;53.156;18.164;2023-12-20T11:12:51;100135.77;;;6.28;83.18
76551;BME280;68768;53.156;18.164;2023-12-20T11:15:19;100128.45;;;6.26;83.16
76551;BME280;68768;53.156;18.164;2023-12-20T11:17:45;100116.66;;;6.25;83.18
76551;BME280;68768;53.156;18.164;2023-12-20T11:20:12;100112.11;;;6.24;83.19
76551;BME280;68768;53.156;18.164;2023-12-20T11:22:52;100108.46;;;6.22;83.34
76551;BME280;68768;53.156;18.164;2023-12-20T11:25:18;100113.65;;;6.20;83.16
76551;BME280;68768;53.156;18.164;2023-12-20T11:28:08;100109.27;;;6.19;83.34
76551;BME280;68768;53.156;18.164;2023-12-20T11:30:56;100104.37;;;6.18;83.49
76551;BME280;68768;53.156;18.164;2023-12-20T11:33:30;100099.47;;;6.17;83.01
76551;BME280;68768;53.156;18.164;2023-12-20T11:35:58;100095.45;;;6.15;83.45
76551;BME280;68768;53.156;18.164;2023-12-20T11:38:25;100087.76;;;6.14;82.90
76551;BME280;68768;53.156;18.164;2023-12-20T11:40:54;100082.52;;;6.12;82.85
76551;BME280;68768;53.156;18.164;2023-12-20T11:43:38;100074.83;;;6.10;83.05
76551;BME280;68768;53.156;18.164;2023-12-20T11:46:05;100069.19;;;6.10;83.14
76551;BME280;68768;53.156;18.164;2023-12-20T11:48:34;100062.34;;;6.10;82.92
76551;BME280;68768;53.156;18.164;2023-12-20T11:51:00;100063.21;;;6.10;82.91
76551;BME280;68768;53.156;18.164;2023-12-20T11:53:26;100063.12;;;6.13;83.52
76551;BME280;68768;53.156;18.164;2023-12-20T11:55:54;100058.49;;;6.14;83.35
76551;BME280;68768;53.156;18.164;2023-12-20T11:58:20;100052.64;;;6.16;83.31
76551;BME280;68768;53.156;18.164;2023-12-20T12:00:49;100053.52;;;6.15;82.85
76551;BME280;68768;53.156;18.164;2023-12-20T12:03:15;100044.08;;;6.13;83.29
76551;BME280;68768;53.156;18.164;2023-12-20T12:05:42;100040.79;;;6.11;83.21
76551;BME280;68768;53.156;18.164;2023-12-20T12:08:08;100036.33;;;6.08;83.28
76551;BME280;68768;53.156;18.164;2023-12-20T12:10:34;100035.64;;;6.07;83.37
76551;BME280;68768;53.156;18.164;2023-12-20T12:13:00;100030.23;;;6.05;83.57
76551;BME280;68768;53.156;18.164;2023-12-20T12:15:27;100033.28;;;6.03;83.72
76551;BME280;68768;53.156;18.164;2023-12-20T12:17:56;100025.98;;;6.00;83.19
76551;BME280;68768;53.156;18.164;2023-12-20T12:20:23;100027.16;;;5.97;83.38
76551;BME280;68768;53.156;18.164;2023-12-20T12:23:05;100024.59;;;5.94;83.57
76551;BME280;68768;53.156;18.164;2023-12-20T12:25:35;100019.03;;;5.91;83.68
76551;BME280;68768;53.156;18.164;2023-12-20T12:28:02;100013.98;;;5.89;83.86
76551;BME280;68768;53.156;18.164;2023-12-20T12:30:28;100011.59;;;5.86;83.58
76551;BME280;68768;53.156;18.164;2023-12-20T12:32:56;100008.10;;;5.85;83.74
76551;BME280;68768;53.156;18.164;2023-12-20T12:35:22;100004.60;;;5.84;84.00
76551;BME280;68768;53.156;18.164;2023-12-20T12:37:48;100002.37;;;5.82;83.82
76551;BME280;68768;53.156;18.164;2023-12-20T12:40:16;99997.12;;;5.81;83.98
76551;BME280;68768;53.156;18.164;2023-12-20T12:42:44;99994.30;;;5.80;84.12
76551;BME280;68768;53.156;18.164;2023-12-20T12:45:11;99990.00;;;5.78;84.11
76551;BME280;68768;53.156;18.164;2023-12-20T12:47:37;99985.65;;;5.76;84.39
76551;BME280;68768;53.156;18.164;2023-12-20T12:50:04;99983.92;;;5.75;84.22